createdAt,value
2019-05-02T00:01:14.090Z,32.40
2019-05-02T00:03:43.004Z,33.83
2019-05-02T00:06:11.703Z,36.40
2019-05-02T00:08:40.485Z,37.43
2019-05-02T00:11:10.643Z,33.77
2019-05-02T00:13:39.603Z,36.30
2019-05-02T00:16:09.209Z,34.60
2019-05-02T00:18:39.032Z,35.40
2019-05-02T00:21:07.850Z,36.67
2019-05-02T00:23:36.485Z,37.47
2019-05-02T00:26:05.217Z,33.70
2019-05-02T00:28:33.639Z,35.87
2019-05-02T00:31:02.131Z,37.33
2019-05-02T00:33:34.381Z,31.93
2019-05-02T00:36:00.666Z,35.77
2019-05-02T00:38:33.374Z,36.20
2019-05-02T00:41:02.323Z,36.80
2019-05-02T00:43:34.399Z,39.47
2019-05-02T00:46:00.856Z,38.93
2019-05-02T00:48:31.052Z,36.73
2019-05-02T00:50:59.504Z,35.33
2019-05-02T00:53:27.944Z,36.00
2019-05-02T00:55:56.358Z,37.07
2019-05-02T00:58:27.346Z,36.57
2019-05-02T01:00:59.583Z,36.53
2019-05-02T01:03:31.848Z,41.23
2019-05-02T01:05:59.628Z,39.40
2019-05-02T01:08:30.908Z,37.27
2019-05-02T01:10:58.230Z,38.40
2019-05-02T01:13:26.623Z,35.93
2019-05-02T01:15:55.055Z,38.33
2019-05-02T01:18:24.608Z,37.10
2019-05-02T01:20:53.090Z,37.70
2019-05-02T01:23:23.096Z,37.63
2019-05-02T01:25:52.778Z,34.10
2019-05-02T01:28:39.348Z,38.13
2019-05-02T01:31:13.212Z,39.50
2019-05-02T01:33:44.060Z,38.17
2019-05-02T01:36:26.146Z,38.17
2019-05-02T01:38:54.555Z,39.03
2019-05-02T01:41:24.102Z,39.00
2019-05-02T01:43:54.942Z,39.90
2019-05-02T01:46:24.189Z,43.83
2019-05-02T01:48:52.687Z,39.03
2019-05-02T01:51:21.116Z,38.43
2019-05-02T01:53:49.514Z,36.27
2019-05-02T01:56:17.965Z,40.70
2019-05-02T01:58:46.371Z,40.80
2019-05-02T02:01:16.341Z,38.90
2019-05-02T02:03:45.629Z,34.10
2019-05-02T02:06:15.018Z,40.83
2019-05-02T02:08:43.426Z,37.43
2019-05-02T02:11:11.864Z,38.87
2019-05-02T02:13:40.417Z,41.07
2019-05-02T02:16:08.810Z,42.70
2019-05-02T02:18:38.946Z,39.00
2019-05-02T02:21:11.997Z,36.67
2019-05-02T02:23:44.928Z,39.40
2019-05-02T02:26:13.981Z,42.37
2019-05-02T02:28:42.780Z,43.83
2019-05-02T02:31:11.180Z,45.50
2019-05-02T02:33:41.213Z,44.67
2019-05-02T02:36:09.681Z,43.60
2019-05-02T02:38:38.063Z,42.13
2019-05-02T02:41:13.131Z,45.33
2019-05-02T02:43:36.856Z,45.07
2019-05-02T02:46:12.804Z,44.13
2019-05-02T02:48:42.784Z,48.07
2019-05-02T02:51:22.043Z,49.60
2019-05-02T02:53:41.462Z,52.27
2019-05-02T02:56:10.362Z,46.63
2019-05-02T02:58:45.573Z,53.43
2019-05-02T03:01:08.986Z,53.67
2019-05-02T03:03:37.648Z,50.90
2019-05-02T03:06:08.061Z,50.83
2019-05-02T03:08:44.661Z,48.43
2019-05-02T03:11:06.399Z,51.90
2019-05-02T03:13:52.590Z,50.17
2019-05-02T03:16:20.230Z,52.90
2019-05-02T03:18:48.623Z,49.33
2019-05-02T03:21:20.314Z,50.23
2019-05-02T03:23:47.349Z,53.13
2019-05-02T03:26:17.283Z,51.97
2019-05-02T03:28:57.104Z,52.83
2019-05-02T03:31:29.015Z,49.73
2019-05-02T03:33:54.762Z,56.10
2019-05-02T03:36:29.238Z,55.07
2019-05-02T03:38:46.425Z,56.20
2019-05-02T03:41:20.585Z,56.07
2019-05-02T03:43:45.078Z,52.40
2019-05-02T03:46:20.567Z,51.97
2019-05-02T03:48:43.885Z,55.00
2019-05-02T03:51:20.991Z,53.20
2019-05-02T03:53:42.544Z,50.00
2019-05-02T03:56:13.707Z,52.77
2019-05-02T03:58:41.135Z,53.00
2019-05-02T04:01:09.526Z,48.83
2019-05-02T04:03:40.982Z,48.70
2019-05-02T04:06:14.185Z,55.10
2019-05-02T04:08:39.245Z,55.07
2019-05-02T04:11:19.638Z,53.80
2019-05-02T04:13:49.027Z,55.50
2019-05-02T04:16:18.088Z,53.97
2019-05-02T04:18:54.706Z,58.50
2019-05-02T04:21:24.378Z,61.13
2019-05-02T04:23:49.169Z,59.87
2019-05-02T04:26:18.061Z,57.48
2019-05-02T04:28:51.686Z,61.93
2019-05-02T04:31:16.724Z,60.23
2019-05-02T04:33:45.188Z,62.37
2019-05-02T04:36:17.499Z,60.63
2019-05-02T04:38:47.915Z,58.83
2019-05-02T04:41:18.721Z,62.00
2019-05-02T04:43:54.449Z,60.67
2019-05-02T04:46:22.007Z,57.77
2019-05-02T04:48:49.800Z,61.30
2019-05-02T04:51:17.534Z,58.90
2019-05-02T04:53:45.604Z,63.93
2019-05-02T04:56:14.111Z,55.80
2019-05-02T04:58:42.519Z,50.83
2019-05-02T05:01:10.908Z,58.27
2019-05-02T05:03:39.300Z,55.93
2019-05-02T05:06:12.306Z,57.47
2019-05-02T05:08:38.942Z,57.17
2019-05-02T05:11:08.086Z,56.53
2019-05-02T05:13:37.428Z,61.27
2019-05-02T05:16:08.650Z,65.60
2019-05-02T05:18:37.758Z,70.45
2019-05-02T05:21:10.371Z,49.80
2019-05-02T05:24:01.026Z,48.90
2019-05-02T05:26:28.327Z,48.87
2019-05-02T05:28:58.343Z,49.57
2019-05-02T05:31:29.139Z,49.67
2019-05-02T05:33:57.914Z,43.77
2019-05-02T05:36:32.534Z,54.60
2019-05-02T05:38:58.294Z,46.03
2019-05-02T05:41:27.793Z,46.07
2019-05-02T05:43:57.354Z,48.87
2019-05-02T05:46:27.956Z,47.70
2019-05-02T05:48:57.825Z,45.43
2019-05-02T05:51:27.639Z,42.67
2019-05-02T05:53:59.552Z,45.70
2019-05-02T05:56:27.880Z,42.90
2019-05-02T05:58:58.819Z,124.10
2019-05-02T06:01:34.367Z,44.97
2019-05-02T06:03:58.098Z,44.87
2019-05-02T06:06:27.411Z,44.50
2019-05-02T06:08:55.996Z,44.63
2019-05-02T06:11:24.388Z,45.73
2019-05-02T06:13:52.776Z,38.87
2019-05-02T06:16:21.171Z,43.27
2019-05-02T06:18:49.561Z,39.83
2019-05-02T06:21:17.964Z,42.03
2019-05-02T06:23:46.730Z,48.87
2019-05-02T06:26:15.545Z,37.67
2019-05-02T06:28:44.324Z,36.67
2019-05-02T06:31:12.786Z,35.10
2019-05-02T06:33:41.185Z,35.23
2019-05-02T06:36:09.686Z,38.87
2019-05-02T06:38:38.078Z,38.57
2019-05-02T06:41:06.473Z,36.97
2019-05-02T06:43:34.887Z,33.47
2019-05-02T06:46:15.427Z,42.03
2019-05-02T06:48:33.502Z,179.13
2019-05-02T06:51:01.898Z,39.07
2019-05-02T06:53:30.289Z,36.93
2019-05-02T06:55:58.686Z,41.33
2019-05-02T06:58:27.082Z,35.67
2019-05-02T07:00:58.816Z,33.57
2019-05-02T07:03:27.593Z,35.37
2019-05-02T07:05:58.868Z,36.77
2019-05-02T07:08:26.031Z,35.87
2019-05-02T07:10:56.038Z,37.57
2019-05-02T07:13:24.561Z,35.50
2019-05-02T07:15:57.118Z,40.07
2019-05-02T07:18:35.875Z,32.17
2019-05-02T07:21:05.068Z,31.97
2019-05-02T07:23:33.528Z,37.77
2019-05-02T07:26:01.931Z,37.10
2019-05-02T07:28:30.316Z,33.27
2019-05-02T07:30:59.075Z,30.87
2019-05-02T07:33:27.464Z,31.23
2019-05-02T07:36:00.046Z,29.27
2019-05-02T07:38:27.572Z,30.73
2019-05-02T07:40:55.970Z,28.73
2019-05-02T07:43:24.348Z,27.47
2019-05-02T07:45:52.740Z,35.03
2019-05-02T07:48:21.133Z,30.40
2019-05-02T07:50:50.017Z,29.20
2019-05-02T07:53:18.647Z,30.80
2019-05-02T07:55:49.083Z,29.47
2019-05-02T07:58:17.211Z,28.60
2019-05-02T08:00:45.603Z,33.37
2019-05-02T08:03:13.995Z,39.63
2019-05-02T08:05:42.400Z,32.07
2019-05-02T08:08:10.793Z,34.17
2019-05-02T08:10:39.296Z,35.17
2019-05-02T08:13:11.977Z,34.53
2019-05-02T08:15:37.909Z,29.70
2019-05-02T08:18:06.303Z,33.97
2019-05-02T08:20:34.962Z,31.07
2019-05-02T08:23:03.866Z,34.40
2019-05-02T08:25:32.327Z,32.57
2019-05-02T08:28:04.641Z,37.67
2019-05-02T08:30:35.324Z,102.17
2019-05-02T08:33:04.413Z,36.97
2019-05-02T08:35:32.910Z,33.40
2019-05-02T08:38:01.317Z,32.00
2019-05-02T08:40:29.731Z,35.63
2019-05-02T08:42:58.170Z,34.80
2019-05-02T08:45:26.562Z,32.03
2019-05-02T08:47:54.956Z,35.67
2019-05-02T08:50:27.175Z,30.87
2019-05-02T08:52:53.470Z,29.73
2019-05-02T08:55:21.857Z,33.13
2019-05-02T08:57:50.250Z,30.83
2019-05-02T09:00:19.183Z,30.97
2019-05-02T09:02:47.583Z,40.17
2019-05-02T09:05:17.510Z,31.50
2019-05-02T09:07:45.903Z,30.43
2019-05-02T09:10:14.372Z,31.37
2019-05-02T09:12:45.383Z,32.53
2019-05-02T09:15:13.515Z,32.40
2019-05-02T09:17:44.710Z,31.03
2019-05-02T09:20:16.624Z,27.60
2019-05-02T09:22:46.700Z,30.00
2019-05-02T09:25:13.035Z,28.33
2019-05-02T09:27:42.678Z,28.63
2019-05-02T09:30:17.034Z,24.97
2019-05-02T09:32:43.182Z,25.20
2019-05-02T09:35:12.811Z,25.67
2019-05-02T09:37:42.072Z,21.90
2019-05-02T09:40:12.604Z,24.63
2019-05-02T09:42:43.036Z,24.90
2019-05-02T09:45:15.962Z,24.80
2019-05-02T09:47:55.838Z,24.43
2019-05-02T09:50:20.564Z,23.40
2019-05-02T09:52:47.739Z,22.20
2019-05-02T09:55:17.281Z,21.37
2019-05-02T09:57:45.942Z,22.43
2019-05-02T10:00:36.205Z,22.10
2019-05-02T10:03:04.649Z,30.47
2019-05-02T10:05:33.057Z,28.47
2019-05-02T10:08:03.236Z,27.17
2019-05-02T10:10:32.478Z,33.43
2019-05-02T10:13:02.799Z,25.23
2019-05-02T10:15:32.709Z,24.83
2019-05-02T10:18:08.704Z,22.80
2019-05-02T10:20:36.121Z,20.50
2019-05-02T10:23:02.214Z,25.43
2019-05-02T10:25:38.340Z,23.70
2019-05-02T10:28:02.146Z,19.73
2019-05-02T10:30:35.517Z,13.43
2019-05-02T10:33:02.749Z,13.50
2019-05-02T10:35:37.255Z,13.87
2019-05-02T10:38:02.951Z,12.80
2019-05-02T10:40:32.154Z,12.03
2019-05-02T10:43:02.750Z,14.67
2019-05-02T10:45:32.067Z,9.50
2019-05-02T10:48:02.285Z,9.63
2019-05-02T10:50:35.104Z,10.90
2019-05-02T10:53:11.081Z,10.30
2019-05-02T10:55:33.788Z,10.53
2019-05-02T10:58:02.254Z,8.80
2019-05-02T11:00:32.717Z,8.47
2019-05-02T11:03:03.075Z,9.57
2019-05-02T11:05:33.040Z,11.73
2019-05-02T11:08:04.811Z,10.30
2019-05-02T11:10:32.285Z,10.77
2019-05-02T11:13:02.436Z,8.43
2019-05-02T11:15:41.864Z,11.53
2019-05-02T11:18:12.526Z,10.87
2019-05-02T11:20:42.079Z,13.23
2019-05-02T11:23:12.571Z,11.00
2019-05-02T11:25:42.126Z,10.27
2019-05-02T11:28:12.391Z,10.30
2019-05-02T11:30:41.974Z,10.57
2019-05-02T11:33:13.170Z,9.53
2019-05-02T11:35:41.889Z,11.37
2019-05-02T11:38:13.165Z,9.40
2019-05-02T11:40:42.181Z,9.47
2019-05-02T11:43:11.583Z,9.90
2019-05-02T11:45:40.065Z,8.80
2019-05-02T11:48:10.925Z,8.03
2019-05-02T11:50:38.555Z,10.70
2019-05-02T11:53:09.161Z,7.13
2019-05-02T11:55:37.085Z,10.37
2019-05-02T11:58:08.155Z,11.33
2019-05-02T12:00:39.618Z,7.50
2019-05-02T12:03:09.982Z,8.60
2019-05-02T12:05:39.496Z,9.40
2019-05-02T12:08:09.506Z,11.40
2019-05-02T12:10:38.000Z,9.77
2019-05-02T12:13:11.075Z,8.50
2019-05-02T12:15:36.822Z,10.13
2019-05-02T12:18:05.299Z,12.53
2019-05-02T12:20:36.565Z,12.77
2019-05-02T12:23:03.854Z,8.20
2019-05-02T12:25:32.851Z,9.23
2019-05-02T12:28:02.280Z,9.87
2019-05-02T12:30:34.134Z,12.23
2019-05-02T12:33:02.493Z,9.33
2019-05-02T12:35:32.203Z,10.20
2019-05-02T12:38:02.563Z,9.37
2019-05-02T12:40:32.463Z,8.27
2019-05-02T12:43:02.428Z,8.57
2019-05-02T12:45:33.189Z,10.27
2019-05-02T12:48:02.421Z,10.20
2019-05-02T12:50:32.186Z,10.63
2019-05-02T12:53:02.810Z,12.83
2019-05-02T12:55:32.599Z,9.27
2019-05-02T12:58:02.966Z,10.13
2019-05-02T13:00:31.995Z,9.53
2019-05-02T13:03:11.629Z,9.23
2019-05-02T13:05:40.142Z,8.80
2019-05-02T13:08:08.541Z,11.57
2019-05-02T13:10:44.250Z,10.23
2019-05-02T13:13:12.641Z,8.10
2019-05-02T13:15:42.384Z,11.07
2019-05-02T13:18:12.464Z,9.75
2019-05-02T13:20:41.842Z,9.80
2019-05-02T13:23:17.201Z,9.43
2019-05-02T13:25:45.578Z,9.63
2019-05-02T13:28:17.160Z,9.13
2019-05-02T13:30:54.726Z,6.03
2019-05-02T13:33:35.780Z,7.83
2019-05-02T13:36:03.625Z,8.43
2019-05-02T13:38:32.915Z,9.10
2019-05-02T13:41:02.616Z,8.73
2019-05-02T13:43:32.664Z,8.80
2019-05-02T13:46:12.610Z,9.83
2019-05-02T13:48:42.907Z,9.03
2019-05-02T13:51:12.284Z,11.10
2019-05-02T13:53:42.572Z,8.30
2019-05-02T13:56:22.041Z,9.00
2019-05-02T13:58:51.877Z,10.90
2019-05-02T14:01:22.399Z,8.40
2019-05-02T14:03:53.659Z,8.30
2019-05-02T14:06:22.013Z,12.05
2019-05-02T14:08:58.506Z,10.67
2019-05-02T14:11:44.862Z,9.37
2019-05-02T14:14:13.260Z,9.60
2019-05-02T14:16:42.066Z,10.53
2019-05-02T14:19:12.467Z,9.73
2019-05-02T14:21:42.186Z,9.90
2019-05-02T14:24:11.810Z,9.47
2019-05-02T14:26:40.362Z,8.73
2019-05-02T14:29:12.540Z,12.23
2019-05-02T14:31:38.871Z,12.78
2019-05-02T14:34:25.252Z,10.97
2019-05-02T14:36:58.992Z,12.83
2019-05-02T14:39:23.880Z,11.43
2019-05-02T14:41:52.679Z,11.23
2019-05-02T14:44:23.271Z,12.33
2019-05-02T14:46:52.336Z,11.50
2019-05-02T14:49:22.023Z,11.17
2019-05-02T14:51:52.556Z,10.03
2019-05-02T14:54:22.926Z,11.20
2019-05-02T14:56:52.948Z,14.00
2019-05-02T14:59:22.774Z,9.90
2019-05-02T15:01:57.949Z,11.73
2019-05-02T15:04:23.261Z,12.97
2019-05-02T15:06:52.509Z,9.40
2019-05-02T15:09:26.379Z,11.47
2019-05-02T15:12:03.012Z,12.77
2019-05-02T15:14:33.114Z,12.37
2019-05-02T15:17:02.667Z,15.93
2019-05-02T15:19:32.917Z,11.13
2019-05-02T15:22:02.240Z,12.10
2019-05-02T15:24:33.419Z,12.17
2019-05-02T15:27:03.703Z,12.77
2019-05-02T15:29:32.199Z,14.20
2019-05-02T15:32:12.653Z,12.30
2019-05-02T15:34:54.625Z,10.80
2019-05-02T15:37:25.661Z,14.50
2019-05-02T15:42:25.568Z,10.50
2019-05-02T15:44:57.183Z,11.00
2019-05-02T15:47:23.518Z,11.07
2019-05-02T15:49:52.793Z,12.73
2019-05-02T15:52:24.276Z,12.17
2019-05-02T15:54:59.814Z,10.80
2019-05-02T15:57:24.894Z,11.87
2019-05-02T15:59:53.401Z,13.37
2019-05-02T16:02:26.532Z,12.20
2019-05-02T16:04:56.905Z,12.33
2019-05-02T16:07:23.666Z,10.83
2019-05-02T16:09:59.457Z,13.13
2019-05-02T16:12:22.341Z,13.03
2019-05-02T16:14:52.651Z,14.80
2019-05-02T16:17:25.623Z,12.67
2019-05-02T16:19:58.233Z,13.03
2019-05-02T16:22:24.466Z,12.93
2019-05-02T16:24:53.488Z,12.67
2019-05-02T16:27:25.882Z,12.03
2019-05-02T16:29:58.349Z,12.13
2019-05-02T16:32:30.949Z,12.80
2019-05-02T16:34:59.940Z,13.23
2019-05-02T16:37:28.764Z,15.23
2019-05-02T16:39:57.134Z,11.93
2019-05-02T16:42:25.532Z,11.93
2019-05-02T16:44:54.798Z,14.93
2019-05-02T16:47:23.406Z,13.30
2019-05-02T16:49:53.293Z,11.53
2019-05-02T16:52:22.287Z,10.67
2019-05-02T16:54:52.410Z,9.67
2019-05-02T16:57:22.143Z,10.77
2019-05-02T16:59:53.895Z,13.37
2019-05-02T17:02:21.841Z,15.03
2019-05-02T17:04:52.113Z,10.77
2019-05-02T17:07:22.211Z,15.33
2019-05-02T17:09:54.711Z,12.37
2019-05-02T17:12:23.166Z,14.73
2019-05-02T17:15:09.323Z,13.67
2019-05-02T17:17:37.711Z,12.47
2019-05-02T17:20:11.808Z,13.27
2019-05-02T17:22:37.734Z,11.30
2019-05-02T17:25:06.883Z,14.80
2019-05-02T17:27:36.061Z,11.83
2019-05-02T17:30:07.602Z,12.30
2019-05-02T17:32:37.701Z,10.43
2019-05-02T17:35:10.042Z,11.67
2019-05-02T17:37:40.681Z,10.77
2019-05-02T17:40:08.489Z,12.33
2019-05-02T17:42:37.032Z,12.40
2019-05-02T17:45:09.661Z,13.83
2019-05-02T17:47:38.219Z,12.53
2019-05-02T17:50:18.297Z,13.70
2019-05-02T17:52:49.108Z,15.73
2019-05-02T17:55:17.568Z,11.43
2019-05-02T17:57:45.967Z,10.67
2019-05-02T18:00:16.900Z,11.20
2019-05-02T18:02:46.844Z,12.60
2019-05-02T18:05:15.578Z,13.70
2019-05-02T18:07:44.023Z,11.23
2019-05-02T18:10:17.176Z,11.73
2019-05-02T18:12:47.702Z,10.30
2019-05-02T18:15:13.839Z,12.97
2019-05-02T18:17:42.731Z,11.30
2019-05-02T18:20:12.498Z,15.17
2019-05-02T18:22:47.180Z,15.33
2019-05-02T18:25:11.717Z,15.50
2019-05-02T18:27:44.039Z,12.88
2019-05-02T18:30:25.003Z,13.23
2019-05-02T18:32:52.717Z,16.93
2019-05-02T18:35:22.034Z,16.83
2019-05-02T18:37:51.735Z,18.07
2019-05-02T18:40:29.367Z,15.03
2019-05-02T18:43:00.925Z,14.80
2019-05-02T18:45:28.715Z,12.93
2019-05-02T18:48:02.425Z,13.00
2019-05-02T18:50:36.788Z,11.47
2019-05-02T18:53:09.932Z,11.73
2019-05-02T18:55:39.149Z,13.57
2019-05-02T18:58:08.876Z,14.27
2019-05-02T19:00:39.632Z,15.30
2019-05-02T19:03:13.317Z,14.47
2019-05-02T19:05:42.081Z,14.87
2019-05-02T19:08:12.308Z,14.90
2019-05-02T19:10:50.727Z,14.85
2019-05-02T19:13:12.703Z,12.20
2019-05-02T19:15:45.333Z,15.07
2019-05-02T19:18:18.077Z,14.13
2019-05-02T19:20:57.347Z,12.90
2019-05-02T19:23:24.192Z,14.73
2019-05-02T19:25:52.923Z,15.87
2019-05-02T19:28:23.239Z,18.93
2019-05-02T19:30:52.008Z,16.10
2019-05-02T19:33:21.618Z,18.90
2019-05-02T19:35:52.449Z,18.13
2019-05-02T19:38:24.701Z,14.37
2019-05-02T19:40:52.034Z,11.20
2019-05-02T19:43:20.524Z,13.00
2019-05-02T19:45:58.707Z,12.07
2019-05-02T19:48:36.787Z,12.67
2019-05-02T19:51:02.922Z,12.17
2019-05-02T19:53:32.395Z,13.80
2019-05-02T19:56:02.927Z,13.30
2019-05-02T19:58:36.816Z,14.73
2019-05-02T20:01:02.649Z,15.07
2019-05-02T20:03:32.342Z,15.67
2019-05-02T20:06:02.327Z,18.10
2019-05-02T20:08:32.651Z,19.07
2019-05-02T20:11:02.240Z,16.13
2019-05-02T20:13:32.641Z,20.73
2019-05-02T20:16:05.935Z,20.60
2019-05-02T20:18:42.516Z,21.10
2019-05-02T20:21:23.450Z,23.13
2019-05-02T20:23:45.184Z,20.67
2019-05-02T20:26:15.317Z,22.03
2019-05-02T20:28:43.763Z,21.03
2019-05-02T20:31:18.172Z,21.93
2019-05-02T20:33:46.566Z,20.87
2019-05-02T20:36:14.965Z,19.20
2019-05-02T20:38:43.367Z,20.90
2019-05-02T20:41:12.758Z,20.47
2019-05-02T20:43:44.652Z,23.87
2019-05-02T20:46:12.108Z,22.37
2019-05-02T20:48:41.846Z,20.37
2019-05-02T20:51:12.163Z,20.50
2019-05-02T20:53:42.058Z,18.33
2019-05-02T20:56:12.333Z,20.13
2019-05-02T20:58:42.019Z,20.80
2019-05-02T21:01:12.433Z,16.77
2019-05-02T21:03:42.673Z,18.75
2019-05-02T21:06:15.519Z,16.53
2019-05-02T21:08:54.232Z,20.33
2019-05-02T21:11:24.020Z,18.50
2019-05-02T21:13:52.500Z,18.30
2019-05-02T21:16:21.840Z,20.87
2019-05-02T21:18:50.218Z,21.67
2019-05-02T21:21:21.954Z,18.63
2019-05-02T21:23:52.790Z,17.73
2019-05-02T21:26:22.033Z,18.53
2019-05-02T21:28:52.194Z,21.37
2019-05-02T21:31:22.398Z,20.17
2019-05-02T21:33:51.939Z,19.40
2019-05-02T21:36:22.535Z,21.33
2019-05-02T21:38:52.098Z,20.90
2019-05-02T21:41:22.242Z,21.80
2019-05-02T21:43:51.865Z,22.43
2019-05-02T21:46:22.183Z,22.97
2019-05-02T21:48:52.502Z,22.10
2019-05-02T21:51:37.198Z,26.53
2019-05-02T21:54:16.448Z,24.07
2019-05-02T21:56:46.483Z,25.80
2019-05-02T21:59:14.872Z,25.50
2019-05-02T22:01:47.988Z,23.70
2019-05-02T22:04:16.512Z,28.03
2019-05-02T22:06:45.267Z,28.03
2019-05-02T22:09:13.721Z,29.63
2019-05-02T22:11:42.963Z,30.40
2019-05-02T22:14:13.254Z,31.90
2019-05-02T22:16:42.163Z,28.80
2019-05-02T22:19:10.534Z,28.97
2019-05-02T22:21:38.989Z,30.70
2019-05-02T22:24:11.254Z,30.03
2019-05-02T22:26:37.551Z,28.03
2019-05-02T22:29:06.022Z,28.50
2019-05-02T22:31:34.408Z,31.67
2019-05-02T22:34:02.809Z,31.13
2019-05-02T22:36:32.641Z,32.33
2019-05-02T22:39:19.411Z,30.57
2019-05-02T22:41:47.808Z,31.13
2019-05-02T22:44:16.272Z,34.10
2019-05-02T22:46:45.605Z,33.85
2019-05-02T22:49:15.276Z,33.53
2019-05-02T22:51:44.456Z,33.37
2019-05-02T22:54:24.067Z,32.63
2019-05-02T22:56:43.660Z,31.63
2019-05-02T22:59:12.081Z,31.50
2019-05-02T23:01:42.136Z,31.73
2019-05-02T23:04:12.666Z,31.60
2019-05-02T23:06:43.802Z,30.53
2019-05-02T23:09:12.635Z,28.40
2019-05-02T23:11:42.609Z,28.67
2019-05-02T23:14:11.247Z,30.70
2019-05-02T23:16:42.313Z,27.10
2019-05-02T23:19:12.047Z,28.53
2019-05-02T23:21:41.924Z,29.90
2019-05-02T23:24:11.742Z,27.33
2019-05-02T23:26:45.819Z,28.47
2019-05-02T23:29:15.861Z,30.53
2019-05-02T23:31:44.244Z,31.07
2019-05-02T23:34:12.637Z,31.63
2019-05-02T23:36:41.629Z,30.30
2019-05-02T23:39:12.446Z,29.80
2019-05-02T23:41:42.110Z,28.37
2019-05-02T23:44:12.253Z,29.00
2019-05-02T23:46:42.347Z,28.50
2019-05-02T23:49:12.805Z,28.50
2019-05-02T23:51:42.787Z,28.30
2019-05-02T23:54:12.826Z,29.23
2019-05-02T23:56:43.085Z,27.57
2019-05-02T23:59:11.966Z,29.53
